createdAt,value
2019-04-09T02:00:22.204Z,803.83
2019-04-09T02:00:28.473Z,803.81
2019-04-09T02:00:34.139Z,803.8
2019-04-09T02:00:41.147Z,803.81
2019-04-09T02:00:46.974Z,803.81
2019-04-09T02:00:54.724Z,803.82
2019-04-09T02:01:00.950Z,803.8
2019-04-09T02:01:08.165Z,803.79
2019-04-09T02:01:13.945Z,803.8
2019-04-09T02:01:19.709Z,803.75
2019-04-09T02:01:25.977Z,803.79
2019-04-09T02:01:32.246Z,803.8
2019-04-09T02:01:37.882Z,803.79
2019-04-09T02:01:43.590Z,803.76
2019-04-09T02:01:49.331Z,803.76
2019-04-09T02:01:55.691Z,803.79
2019-04-09T02:02:01.334Z,803.78
2019-04-09T02:02:07.596Z,803.79
2019-04-09T02:02:13.201Z,803.77
2019-04-09T02:02:19.501Z,803.76
2019-04-09T02:02:25.223Z,803.79
2019-04-09T02:02:31.394Z,803.81
2019-04-09T02:02:36.545Z,803.77
2019-04-09T02:02:42.814Z,803.81
2019-04-09T02:02:49.235Z,803.77
2019-04-09T02:02:54.782Z,803.78
2019-04-09T02:03:00.348Z,803.81
2019-04-09T02:03:06.675Z,803.81
2019-04-09T02:03:13.009Z,803.81
2019-04-09T02:03:18.580Z,803.77
2019-04-09T02:03:23.750Z,803.8
2019-04-09T02:03:30.130Z,803.75
2019-04-09T02:03:36.318Z,803.78
2019-04-09T02:03:41.944Z,803.83
2019-04-09T02:03:47.675Z,803.83
2019-04-09T02:03:53.905Z,803.81
2019-04-09T02:04:00.264Z,803.83
2019-04-09T02:04:05.879Z,803.83
2019-04-09T02:04:11.594Z,803.82
2019-04-09T02:04:17.165Z,803.82
2019-04-09T02:04:23.556Z,803.85
2019-04-09T02:04:29.289Z,803.89
2019-04-09T02:04:35.500Z,803.86
2019-04-09T02:04:41.066Z,803.91
2019-04-09T02:04:47.296Z,803.83
2019-04-09T02:04:52.770Z,803.84
2019-04-09T02:04:59.101Z,803.9
2019-04-09T02:05:04.796Z,803.9
2019-04-09T02:05:11.088Z,803.87
2019-04-09T02:05:16.816Z,803.94
2019-04-09T02:05:23.076Z,803.94
2019-04-09T02:05:28.102Z,803.9
2019-04-09T02:05:34.483Z,803.93
2019-04-09T02:05:40.917Z,803.91
2019-04-09T02:05:46.403Z,803.91
2019-04-09T02:05:52.024Z,803.93
2019-04-09T02:05:58.298Z,803.95
2019-04-09T02:06:04.676Z,803.96
2019-04-09T02:06:10.258Z,803.95
2019-04-09T02:06:15.341Z,803.99
2019-04-09T02:06:21.620Z,804
2019-04-09T02:06:28.018Z,803.99
2019-04-09T02:06:33.550Z,804.01
2019-04-09T02:06:39.255Z,803.97
2019-04-09T02:06:45.439Z,804.01
2019-04-09T02:06:51.835Z,804
2019-04-09T02:06:57.421Z,804
2019-04-09T02:07:03.258Z,803.99
2019-04-09T02:07:08.871Z,803.93
2019-04-09T02:07:15.190Z,803.97
2019-04-09T02:07:20.687Z,803.96
2019-04-09T02:07:27.147Z,803.99
2019-04-09T02:07:32.746Z,803.97
2019-04-09T02:07:39.034Z,803.96
2019-04-09T02:07:44.801Z,803.97
2019-04-09T02:07:50.937Z,803.97
2019-04-09T02:07:56.119Z,804
2019-04-09T02:08:02.282Z,803.97
2019-04-09T02:08:08.581Z,804.01
2019-04-09T02:08:14.266Z,803.96
2019-04-09T02:08:19.816Z,804
2019-04-09T02:08:26.196Z,804
2019-04-09T02:08:32.461Z,803.98
2019-04-09T02:08:38.213Z,803.98
2019-04-09T02:08:43.359Z,803.97
2019-04-09T02:08:49.638Z,804.01
2019-04-09T02:08:55.889Z,803.99
2019-04-09T02:09:01.587Z,803.98
2019-04-09T02:09:07.258Z,804
2019-04-09T02:09:13.436Z,804
2019-04-09T02:09:19.774Z,803.99
2019-04-09T02:09:25.360Z,804.02
2019-04-09T02:09:31.053Z,803.98
2019-04-09T02:09:36.750Z,803.99
2019-04-09T02:09:42.985Z,803.98
2019-04-09T02:09:48.596Z,803.97
2019-04-09T02:09:54.818Z,803.95
2019-04-09T02:10:00.480Z,803.96
2019-04-09T02:10:06.669Z,803.99
2019-04-09T02:10:12.451Z,804
2019-04-09T02:10:18.558Z,803.99
2019-04-09T02:10:23.674Z,803.98
2019-04-09T02:10:29.994Z,804.03
2019-04-09T02:10:36.214Z,804.04
2019-04-09T02:10:41.788Z,803.99
2019-04-09T02:10:47.489Z,804.03
2019-04-09T02:10:53.781Z,804.02
2019-04-09T02:11:00.154Z,804.07
2019-04-09T02:11:09.824Z,804.03
2019-04-09T02:11:15.736Z,804.05
2019-04-09T02:11:22.113Z,804.06
2019-04-09T02:11:27.726Z,804.06
2019-04-09T02:11:33.871Z,804.09
2019-04-09T02:11:39.038Z,804.07
2019-04-09T02:11:45.458Z,804.06
2019-04-09T02:11:51.416Z,804.09
2019-04-09T02:11:57.634Z,804.07
2019-04-09T02:12:02.740Z,804.11
2019-04-09T02:12:09.115Z,804.09
2019-04-09T02:12:15.290Z,804.06
2019-04-09T02:12:20.934Z,804.08
2019-04-09T02:12:26.571Z,804.1
2019-04-09T02:12:32.941Z,804.11
2019-04-09T02:12:39.216Z,804.11
2019-04-09T02:12:44.722Z,804.11
2019-04-09T02:12:49.723Z,804.15
2019-04-09T02:12:56.335Z,804.12
2019-04-09T02:13:02.518Z,804.13
2019-04-09T02:13:08.144Z,804.16
2019-04-09T02:13:13.970Z,804.16
2019-04-09T02:13:20.104Z,804.12
2019-04-09T02:13:28.549Z,804.15
2019-04-09T02:13:34.099Z,804.13
2019-04-09T02:13:39.240Z,804.14
2019-04-09T02:13:45.569Z,804.18
2019-04-09T02:13:51.827Z,804.18
2019-04-09T02:13:57.413Z,804.2
2019-04-09T02:14:03.133Z,804.17
2019-04-09T02:14:09.270Z,804.16
2019-04-09T02:14:15.644Z,804.17
2019-04-09T02:14:21.303Z,804.2
2019-04-09T02:14:26.824Z,804.18
2019-04-09T02:14:32.586Z,804.23
2019-04-09T02:14:38.940Z,804.2
2019-04-09T02:14:44.439Z,804.22
2019-04-09T02:14:50.773Z,804.19
2019-04-09T02:14:56.388Z,804.19
2019-04-09T02:15:02.949Z,804.23
2019-04-09T02:15:09.113Z,804.25
2019-04-09T02:15:15.448Z,804.2
2019-04-09T02:15:21.145Z,804.25
2019-04-09T02:15:27.365Z,804.25
2019-04-09T02:15:33.035Z,804.23
2019-04-09T02:15:39.181Z,804.26
2019-04-09T02:15:44.327Z,804.28
2019-04-09T02:15:50.804Z,804.26
2019-04-09T02:15:56.834Z,804.25
2019-04-09T02:16:02.639Z,804.24
2019-04-09T02:16:08.186Z,804.27
2019-04-09T02:16:14.532Z,804.28
2019-04-09T02:16:20.801Z,804.3
2019-04-09T02:16:26.375Z,804.33
2019-04-09T02:16:31.617Z,804.24
2019-04-09T02:16:37.882Z,804.28
2019-04-09T02:16:44.009Z,804.31
2019-04-09T02:16:49.780Z,804.3
2019-04-09T02:16:55.435Z,804.29
2019-04-09T02:17:01.706Z,804.3
2019-04-09T02:17:07.937Z,804.31
2019-04-09T02:17:13.580Z,804.29
2019-04-09T02:17:19.351Z,804.27
2019-04-09T02:17:25.034Z,804.31
2019-04-09T02:17:31.304Z,804.29
2019-04-09T02:17:36.965Z,804.31
2019-04-09T02:17:43.328Z,804.33
2019-04-09T02:17:49.017Z,804.31
2019-04-09T02:17:55.310Z,804.31
2019-04-09T02:18:00.921Z,804.3
2019-04-09T02:18:07.224Z,804.3
2019-04-09T02:18:12.328Z,804.29
2019-04-09T02:18:18.675Z,804.25
2019-04-09T02:18:24.948Z,804.22
2019-04-09T02:18:30.490Z,804.23
2019-04-09T02:18:36.152Z,804.26
2019-04-09T02:18:42.467Z,804.23
2019-04-09T02:18:49.665Z,804.24
2019-04-09T02:18:55.201Z,804.24
2019-04-09T02:19:00.797Z,804.24
2019-04-09T02:19:07.150Z,804.23
2019-04-09T02:19:13.421Z,804.23
2019-04-09T02:19:19.116Z,804.2
2019-04-09T02:19:24.191Z,804.23
2019-04-09T02:19:30.494Z,804.23
2019-04-09T02:19:36.727Z,804.23
2019-04-09T02:19:42.400Z,804.22
2019-04-09T02:19:48.087Z,804.22
2019-04-09T02:19:54.280Z,804.23
2019-04-09T02:20:00.622Z,804.23
2019-04-09T02:20:07.026Z,804.24
2019-04-09T02:20:12.495Z,804.24
2019-04-09T02:20:19.042Z,804.27
2019-04-09T02:20:25.297Z,804.26
2019-04-09T02:20:30.855Z,804.23
2019-04-09T02:20:36.671Z,804.29
2019-04-09T02:20:42.431Z,804.28
2019-04-09T02:20:48.691Z,804.27
2019-04-09T02:20:54.348Z,804.28
2019-04-09T02:21:00.598Z,804.3
2019-04-09T02:21:11.192Z,804.28
2019-04-09T02:21:18.954Z,804.3
2019-04-09T02:21:25.201Z,804.28
2019-04-09T02:21:30.791Z,804.25
2019-04-09T02:21:37.104Z,804.27
2019-04-09T02:21:42.882Z,804.24
2019-04-09T02:21:49.088Z,804.24
2019-04-09T02:21:54.064Z,804.26
2019-04-09T02:22:00.405Z,804.23
2019-04-09T02:22:06.913Z,804.29
2019-04-09T02:22:12.471Z,804.3
2019-04-09T02:22:18.089Z,804.29
2019-04-09T02:22:24.441Z,804.3
2019-04-09T02:22:31.563Z,804.31
2019-04-09T02:22:37.075Z,804.25
2019-04-09T02:22:42.747Z,804.28
2019-04-09T02:22:49.084Z,804.32
2019-04-09T02:22:55.414Z,804.3
2019-04-09T02:23:01.004Z,804.32
2019-04-09T02:23:06.125Z,804.33
2019-04-09T02:23:12.367Z,804.33
2019-04-09T02:23:18.702Z,804.31
2019-04-09T02:23:24.323Z,804.35
2019-04-09T02:23:29.954Z,804.4
2019-04-09T02:23:36.242Z,804.35
2019-04-09T02:23:44.644Z,804.36
2019-04-09T02:23:50.255Z,804.35
2019-04-09T02:23:55.441Z,804.33
2019-04-09T02:24:01.627Z,804.35
2019-04-09T02:24:08.049Z,804.39
2019-04-09T02:24:18.048Z,804.41
2019-04-09T02:24:23.032Z,804.38
2019-04-09T02:24:29.452Z,804.39
2019-04-09T02:24:35.752Z,804.39
2019-04-09T02:24:41.262Z,804.44
2019-04-09T02:24:46.429Z,804.45
2019-04-09T02:24:52.937Z,804.44
2019-04-09T02:24:59.222Z,804.45
2019-04-09T02:25:04.782Z,804.43
2019-04-09T02:25:10.476Z,804.51
2019-04-09T02:25:16.762Z,804.46
2019-04-09T02:25:23.010Z,804.52
2019-04-09T02:25:28.566Z,804.47
2019-04-09T02:25:34.305Z,804.49
2019-04-09T02:25:40.107Z,804.5
2019-04-09T02:25:47.785Z,804.56
2019-04-09T02:25:53.357Z,804.53
2019-04-09T02:25:59.151Z,804.56
2019-04-09T02:26:04.774Z,804.54
2019-04-09T02:26:12.737Z,804.51
2019-04-09T02:26:18.859Z,804.55
2019-04-09T02:26:24.481Z,804.53
2019-04-09T02:26:30.740Z,804.6
2019-04-09T02:26:37.031Z,804.58
2019-04-09T02:26:42.629Z,804.53
2019-04-09T02:26:48.357Z,804.55
2019-04-09T02:26:54.044Z,804.59
2019-04-09T02:27:00.272Z,804.58
2019-04-09T02:27:06.049Z,804.55
2019-04-09T02:27:12.385Z,804.56
2019-04-09T02:27:17.540Z,804.58
2019-04-09T02:27:47.499Z,804.56
2019-04-09T02:27:54.830Z,804.54
2019-04-09T02:28:00.394Z,804.58
2019-04-09T02:28:06.244Z,804.61
2019-04-09T02:28:11.908Z,804.62
2019-04-09T02:28:18.246Z,804.57
2019-04-09T02:28:23.783Z,804.61
2019-04-09T02:28:30.099Z,804.61
2019-04-09T02:28:35.711Z,804.59
2019-04-09T02:28:41.976Z,804.61
2019-04-09T02:28:47.746Z,804.59
2019-04-09T02:28:53.895Z,804.64
2019-04-09T02:28:59.066Z,804.6
2019-04-09T02:29:05.371Z,804.63
2019-04-09T02:29:11.568Z,804.63
2019-04-09T02:29:17.099Z,804.64
2019-04-09T02:29:22.707Z,804.63
2019-04-09T02:29:29.090Z,804.61
2019-04-09T02:29:35.331Z,804.66
2019-04-09T02:29:40.919Z,804.67
2019-04-09T02:29:45.801Z,804.61
2019-04-09T02:29:52.347Z,804.63
2019-04-09T02:29:58.592Z,804.63
2019-04-09T02:30:06.415Z,804.62
2019-04-09T02:30:16.839Z,804.62
2019-04-09T02:30:26.710Z,804.67
2019-04-09T02:30:35.986Z,804.69
2019-04-09T02:30:49.992Z,804.66
2019-04-09T02:30:58.457Z,804.69
2019-04-09T02:31:08.207Z,804.69
2019-04-09T02:31:17.822Z,804.67
2019-04-09T02:31:26.584Z,804.68
2019-04-09T02:31:36.814Z,804.75
2019-04-09T02:31:44.795Z,804.73
2019-04-09T02:31:55.368Z,804.71
2019-04-09T02:32:05.495Z,804.73
2019-04-09T02:32:15.226Z,804.75
2019-04-09T02:32:28.051Z,804.74
2019-04-09T02:32:36.891Z,804.79
2019-04-09T02:32:46.522Z,804.79
2019-04-09T02:32:56.212Z,804.79
2019-04-09T02:33:05.145Z,804.8
2019-04-09T02:33:17.706Z,804.82
2019-04-09T02:33:26.356Z,804.83
2019-04-09T02:33:38.783Z,804.81
2019-04-09T02:33:48.005Z,804.82
2019-04-09T02:33:56.259Z,804.81
2019-04-09T02:34:08.020Z,804.85
2019-04-09T02:34:16.569Z,804.8
2019-04-09T02:34:27.595Z,804.82
2019-04-09T02:34:37.461Z,804.87
2019-04-09T02:34:45.697Z,804.88
2019-04-09T02:34:57.662Z,804.91
2019-04-09T02:35:08.290Z,804.89
2019-04-09T02:35:21.015Z,804.87
2019-04-09T02:35:30.444Z,804.92
2019-04-09T02:35:41.054Z,804.94
2019-04-09T02:35:51.180Z,804.95
2019-04-09T02:35:59.605Z,804.92
2019-04-09T02:36:10.896Z,804.87
2019-04-09T02:36:19.624Z,804.93
2019-04-09T02:36:30.374Z,804.93
2019-04-09T02:36:48.673Z,804.92
2019-04-09T02:37:02.451Z,804.97
2019-04-09T02:37:13.335Z,804.92
2019-04-09T02:37:27.690Z,804.95
2019-04-09T02:37:36.434Z,804.97
2019-04-09T02:37:47.317Z,804.96
2019-04-09T02:37:57.170Z,804.94
2019-04-09T02:38:05.934Z,804.93
2019-04-09T02:38:16.489Z,804.94
2019-04-09T02:38:22.154Z,804.93
2019-04-09T02:38:27.827Z,804.89
2019-04-09T02:38:34.099Z,804.91
2019-04-09T02:38:41.976Z,804.9
2019-04-09T02:38:48.187Z,804.92
2019-04-09T02:38:53.215Z,804.93
2019-04-09T02:38:59.557Z,804.92
2019-04-09T02:39:05.782Z,804.91
2019-04-09T02:39:11.420Z,804.93
2019-04-09T02:39:16.363Z,804.89
2019-04-09T02:39:22.943Z,804.9
2019-04-09T02:39:30.706Z,804.95
2019-04-09T02:39:36.217Z,804.94
2019-04-09T02:39:41.348Z,804.95
2019-04-09T02:39:47.703Z,804.98
2019-04-09T02:39:53.880Z,804.98
2019-04-09T02:39:59.499Z,804.98
2019-04-09T02:40:05.567Z,804.96
2019-04-09T02:40:12.236Z,804.93
2019-04-09T02:40:18.692Z,804.95
2019-04-09T02:40:24.176Z,804.91
2019-04-09T02:40:29.852Z,804.92
2019-04-09T02:40:36.127Z,804.92
2019-04-09T02:40:42.439Z,805
2019-04-09T02:40:48.058Z,804.99
2019-04-09T02:40:53.726Z,804.99
2019-04-09T02:40:59.484Z,805.01
2019-04-09T02:41:05.663Z,804.99
2019-04-09T02:41:11.353Z,805.01
2019-04-09T02:41:17.577Z,805
2019-04-09T02:41:23.251Z,804.97
2019-04-09T02:41:29.578Z,804.96
2019-04-09T02:41:35.341Z,804.98
2019-04-09T02:41:41.529Z,804.96
2019-04-09T02:41:46.662Z,804.98
2019-04-09T02:41:52.974Z,804.92
2019-04-09T02:41:59.233Z,804.94
2019-04-09T02:42:04.930Z,804.92
2019-04-09T02:42:10.444Z,804.92
2019-04-09T02:42:16.785Z,804.93
2019-04-09T02:42:23.133Z,804.93
2019-04-09T02:42:28.696Z,804.95
2019-04-09T02:42:33.863Z,804.92
2019-04-09T02:42:40.171Z,804.93
2019-04-09T02:42:46.583Z,804.9
2019-04-09T02:42:52.083Z,804.94
2019-04-09T02:42:57.778Z,804.9
2019-04-09T02:43:04.061Z,804.86
2019-04-09T02:43:10.297Z,804.93
2019-04-09T02:43:15.905Z,804.93
2019-04-09T02:43:21.766Z,804.91
2019-04-09T02:43:27.409Z,804.94
2019-04-09T02:43:33.685Z,804.9
2019-04-09T02:43:39.333Z,804.86
2019-04-09T02:43:45.627Z,804.86
2019-04-09T02:43:50.880Z,804.89
2019-04-09T02:43:57.215Z,804.89
2019-04-09T02:44:03.518Z,804.89
2019-04-09T02:44:09.178Z,804.92
2019-04-09T02:44:14.721Z,804.93
2019-04-09T02:44:21.197Z,804.91
2019-04-09T02:44:27.534Z,804.88
2019-04-09T02:44:33.051Z,804.87
2019-04-09T02:44:38.186Z,804.93
2019-04-09T02:44:44.514Z,804.91
2019-04-09T02:44:50.832Z,804.92
2019-04-09T02:44:56.430Z,804.94
2019-04-09T02:45:01.913Z,804.88
2019-04-09T02:45:08.403Z,804.92
2019-04-09T02:45:14.694Z,804.93
2019-04-09T02:45:20.338Z,804.91
2019-04-09T02:45:25.872Z,804.89
2019-04-09T02:45:31.723Z,804.94
2019-04-09T02:45:39.413Z,804.94
2019-04-09T02:45:44.988Z,804.92
2019-04-09T02:45:50.669Z,804.92
2019-04-09T02:45:56.473Z,804.96
2019-04-09T02:46:02.666Z,804.95
2019-04-09T02:46:08.397Z,804.97
2019-04-09T02:46:14.671Z,804.97
2019-04-09T02:46:20.279Z,804.94
2019-04-09T02:46:26.540Z,804.95
2019-04-09T02:46:32.281Z,804.89
2019-04-09T02:46:38.508Z,804.93
2019-04-09T02:46:43.617Z,804.95
2019-04-09T02:46:49.964Z,804.96
2019-04-09T02:46:56.169Z,804.97
2019-04-09T02:47:01.761Z,804.98
2019-04-09T02:47:07.346Z,804.95
2019-04-09T02:47:13.619Z,804.95
2019-04-09T02:47:19.935Z,804.98
2019-04-09T02:47:25.551Z,804.96
2019-04-09T02:47:30.698Z,804.96
2019-04-09T02:47:37.034Z,804.98
2019-04-09T02:47:44.614Z,804.97
2019-04-09T02:47:50.233Z,804.95
2019-04-09T02:47:55.109Z,804.94
2019-04-09T02:48:01.545Z,805.01
2019-04-09T02:48:07.928Z,805.01
2019-04-09T02:48:13.464Z,804.98
2019-04-09T02:48:19.174Z,804.97
2019-04-09T02:48:25.456Z,805
2019-04-09T02:48:31.723Z,804.99
2019-04-09T02:48:37.285Z,805.02
2019-04-09T02:48:42.900Z,805.03
2019-04-09T02:48:48.819Z,805.04
2019-04-09T02:48:56.599Z,805.01
2019-04-09T02:49:02.827Z,805.04
2019-04-09T02:49:08.428Z,805.05
2019-04-09T02:49:14.666Z,805.06
2019-04-09T02:49:20.965Z,805.06
2019-04-09T02:49:26.617Z,805.02
2019-04-09T02:49:32.256Z,805.07
2019-04-09T02:49:39.249Z,805.03
2019-04-09T02:49:45.600Z,805.07
2019-04-09T02:49:51.251Z,805.06
2019-04-09T02:49:56.993Z,805.07
2019-04-09T02:50:02.822Z,805.06
2019-04-09T02:50:10.314Z,805.07
2019-04-09T02:50:15.893Z,805.1
2019-04-09T02:50:21.598Z,805.09
2019-04-09T02:50:27.321Z,805.07
2019-04-09T02:50:33.541Z,805.11
2019-04-09T02:50:39.132Z,805.1
2019-04-09T02:50:45.485Z,805.11
2019-04-09T02:50:51.126Z,805.11
2019-04-09T02:50:57.485Z,805.12
2019-04-09T02:51:03.269Z,805.08
2019-04-09T02:51:09.382Z,805.11
2019-04-09T02:51:14.468Z,805.08
2019-04-09T02:51:20.833Z,805.11
2019-04-09T02:51:27.172Z,805.15
2019-04-09T02:51:32.806Z,805.12
2019-04-09T02:51:38.372Z,805.09
2019-04-09T02:51:44.570Z,805.11
2019-04-09T02:51:50.942Z,805.16
2019-04-09T02:51:56.512Z,805.15
2019-04-09T02:52:01.689Z,805.16
2019-04-09T02:52:07.872Z,805.13
2019-04-09T02:52:14.309Z,805.13
2019-04-09T02:52:19.813Z,805.11
2019-04-09T02:52:25.471Z,805.14
2019-04-09T02:52:31.713Z,805.16
2019-04-09T02:52:37.947Z,805.16
2019-04-09T02:52:43.575Z,805.16
2019-04-09T02:52:49.294Z,805.15
2019-04-09T02:52:55.019Z,805.15
2019-04-09T02:53:01.327Z,805.15
2019-04-09T02:53:06.975Z,805.16
2019-04-09T02:53:13.244Z,805.14
2019-04-09T02:53:18.886Z,805.16
2019-04-09T02:53:25.237Z,805.2
2019-04-09T02:53:30.930Z,805.13
2019-04-09T02:53:37.097Z,805.15
2019-04-09T02:53:42.358Z,805.18
2019-04-09T02:53:48.762Z,805.18
2019-04-09T02:53:58.575Z,805.16
2019-04-09T02:54:04.247Z,805.17
2019-04-09T02:54:10.152Z,805.2
2019-04-09T02:54:16.447Z,805.2
2019-04-09T02:54:21.901Z,805.21
2019-04-09T02:54:28.061Z,805.17
2019-04-09T02:54:33.554Z,805.18
2019-04-09T02:54:39.957Z,805.19
2019-04-09T02:54:46.280Z,805.19
2019-04-09T02:54:51.905Z,805.2
2019-04-09T02:54:56.942Z,805.18
2019-04-09T02:55:04.490Z,805.21
2019-04-09T02:55:10.869Z,805.2
2019-04-09T02:55:16.360Z,805.2
2019-04-09T02:55:21.546Z,805.18
2019-04-09T02:55:27.811Z,805.19
2019-04-09T02:55:34.006Z,805.21
2019-04-09T02:55:39.629Z,805.18
2019-04-09T02:55:45.331Z,805.22
2019-04-09T02:55:51.659Z,805.18
2019-04-09T02:55:57.834Z,805.17
2019-04-09T02:56:03.477Z,805.21
2019-04-09T02:56:09.278Z,805.21
2019-04-09T02:56:14.943Z,805.25
2019-04-09T02:56:21.297Z,805.23
2019-04-09T02:56:26.849Z,805.23
2019-04-09T02:56:33.206Z,805.24
2019-04-09T02:56:38.810Z,805.23
2019-04-09T02:56:45.070Z,805.23
2019-04-09T02:56:50.801Z,805.26
2019-04-09T02:56:56.961Z,805.26
2019-04-09T02:57:02.103Z,805.27
2019-04-09T02:57:08.436Z,805.24
2019-04-09T02:57:14.777Z,805.19
2019-04-09T02:57:20.462Z,805.27
2019-04-09T02:57:26.054Z,805.24
2019-04-09T02:57:32.483Z,805.28
2019-04-09T02:58:00.393Z,805.29
2019-04-09T02:58:08.055Z,805.3
2019-04-09T02:58:14.276Z,805.3
2019-04-09T02:58:19.209Z,805.32
2019-04-09T02:58:25.571Z,805.29
2019-04-09T02:58:31.907Z,805.31
2019-04-09T02:58:37.496Z,805.33
2019-04-09T02:58:43.061Z,805.33
2019-04-09T02:58:49.434Z,805.33
2019-04-09T02:58:55.651Z,805.33
2019-04-09T02:59:01.205Z,805.36
2019-04-09T02:59:06.388Z,805.37
2019-04-09T02:59:12.618Z,805.38
2019-04-09T02:59:18.950Z,805.36
2019-04-09T02:59:24.549Z,805.38
2019-04-09T02:59:30.271Z,805.38
2019-04-09T02:59:36.459Z,805.39
2019-04-09T02:59:42.734Z,805.41
2019-04-09T02:59:48.420Z,805.42
2019-04-09T02:59:54.061Z,805.4
2019-04-09T02:59:59.773Z,805.4
2019-04-09T03:00:06.260Z,805.46
2019-04-09T03:00:11.733Z,805.4
2019-04-09T03:00:18.104Z,805.43
2019-04-09T03:00:23.798Z,805.45
2019-04-09T03:00:30.078Z,805.45
2019-04-09T03:00:35.741Z,805.45
2019-04-09T03:00:41.915Z,805.49
2019-04-09T03:00:47.132Z,805.5
2019-04-09T03:00:55.506Z,805.52
2019-04-09T03:01:01.071Z,805.51
2019-04-09T03:01:07.449Z,805.5
2019-04-09T03:01:13.094Z,805.55
2019-04-09T03:01:19.290Z,805.53
2019-04-09T03:01:24.988Z,805.52
2019-04-09T03:01:31.238Z,805.56
2019-04-09T03:01:36.505Z,805.58
2019-04-09T03:01:42.892Z,805.57
2019-04-09T03:01:49.301Z,805.56
2019-04-09T03:01:54.852Z,805.58
2019-04-09T03:01:59.974Z,805.6
2019-04-09T03:02:06.755Z,805.6
2019-04-09T03:02:13.896Z,805.59
2019-04-09T03:02:19.443Z,805.63
2019-04-09T03:02:24.602Z,805.61
2019-04-09T03:02:30.920Z,805.66
2019-04-09T03:02:38.476Z,805.7
2019-04-09T03:02:44.013Z,805.63
2019-04-09T03:02:49.269Z,805.63
2019-04-09T03:02:55.565Z,805.69
2019-04-09T03:03:00.964Z,805.72
2019-04-09T03:03:06.507Z,805.7
2019-04-09T03:03:12.211Z,805.68
2019-04-09T03:03:17.899Z,805.69
2019-04-09T03:03:24.192Z,805.7
2019-04-09T03:03:29.907Z,805.69
2019-04-09T03:03:36.268Z,805.7
2019-04-09T03:03:41.955Z,805.72
2019-04-09T03:03:48.792Z,805.76
2019-04-09T03:03:54.601Z,805.75
2019-04-09T03:04:00.821Z,805.75
2019-04-09T03:04:06.482Z,805.76
2019-04-09T03:04:12.794Z,805.75
2019-04-09T03:04:23.359Z,805.77
2019-04-09T03:04:29.060Z,805.78
2019-04-09T03:04:35.356Z,805.78
2019-04-09T03:04:41.687Z,805.78
2019-04-09T03:04:47.210Z,805.79
2019-04-09T03:04:52.369Z,805.8
2019-04-09T03:04:58.622Z,805.81
2019-04-09T03:05:04.996Z,805.81
2019-04-09T03:05:10.512Z,805.8
2019-04-09T03:05:16.208Z,805.82
2019-04-09T03:05:22.419Z,805.87
2019-04-09T03:05:28.739Z,805.87
2019-04-09T03:05:34.354Z,805.85
2019-04-09T03:05:40.047Z,805.88
2019-04-09T03:05:45.770Z,805.81
2019-04-09T03:05:53.480Z,805.78
2019-04-09T03:05:59.135Z,805.82
2019-04-09T03:06:04.842Z,805.85
2019-04-09T03:06:10.467Z,805.84
2019-04-09T03:06:16.692Z,805.85
2019-04-09T03:06:21.765Z,805.85
2019-04-09T03:06:27.867Z,805.83
2019-04-09T03:06:32.971Z,805.84
2019-04-09T03:06:39.358Z,805.79
2019-04-09T03:06:45.643Z,805.83
2019-04-09T03:06:51.229Z,805.84
2019-04-09T03:06:56.791Z,805.86
2019-04-09T03:07:03.132Z,805.82
2019-04-09T03:07:09.509Z,805.83
2019-04-09T03:07:15.172Z,805.83
2019-04-09T03:07:20.241Z,805.83
2019-04-09T03:07:26.492Z,805.83
2019-04-09T03:07:32.861Z,805.85
2019-04-09T03:07:38.492Z,805.88
2019-04-09T03:07:44.016Z,805.87
2019-04-09T03:07:50.172Z,805.85
2019-04-09T03:07:57.343Z,805.88
2019-04-09T03:08:03.074Z,805.87
2019-04-09T03:08:08.687Z,805.87
2019-04-09T03:08:14.951Z,805.86
2019-04-09T03:08:21.238Z,805.86
2019-04-09T03:08:26.859Z,805.86
2019-04-09T03:08:32.536Z,805.86
2019-04-09T03:08:38.294Z,805.86
2019-04-09T03:08:44.568Z,805.85
2019-04-09T03:08:50.035Z,805.85
2019-04-09T03:08:56.315Z,805.8
2019-04-09T03:09:01.989Z,805.83
2019-04-09T03:09:08.950Z,805.84
2019-04-09T03:09:14.638Z,805.85
2019-04-09T03:09:21.046Z,805.85
2019-04-09T03:09:26.655Z,805.83
2019-04-09T03:09:32.894Z,805.8
2019-04-09T03:09:38.706Z,805.88
2019-04-09T03:09:44.738Z,805.84
2019-04-09T03:09:49.881Z,805.83
2019-04-09T03:09:56.140Z,805.85
2019-04-09T03:10:02.729Z,805.8
2019-04-09T03:10:08.126Z,805.75
2019-04-09T03:10:13.765Z,805.83
2019-04-09T03:10:19.974Z,805.82
2019-04-09T03:10:27.699Z,805.77
2019-04-09T03:10:33.982Z,805.79
2019-04-09T03:10:39.094Z,805.75
2019-04-09T03:10:45.549Z,805.74
2019-04-09T03:10:51.839Z,805.75
2019-04-09T03:10:57.651Z,805.71
2019-04-09T03:11:02.568Z,805.72
2019-04-09T03:11:09.056Z,805.72
2019-04-09T03:11:16.678Z,805.71
2019-04-09T03:11:22.208Z,805.74
2019-04-09T03:11:27.417Z,805.68
2019-04-09T03:11:33.732Z,805.65
2019-04-09T03:11:40.071Z,805.64
2019-04-09T03:11:45.656Z,805.68
2019-04-09T03:11:51.405Z,805.59
2019-04-09T03:11:57.186Z,805.63
2019-04-09T03:12:03.544Z,805.62
2019-04-09T03:12:09.111Z,805.58
2019-04-09T03:12:15.371Z,805.59
2019-04-09T03:12:20.968Z,805.58
2019-04-09T03:12:27.207Z,805.55
2019-04-09T03:12:32.907Z,805.56
2019-04-09T03:12:39.126Z,805.46
2019-04-09T03:12:44.175Z,805.53
2019-04-09T03:12:50.531Z,805.49
2019-04-09T03:12:56.749Z,805.51
2019-04-09T03:13:02.459Z,805.52
2019-04-09T03:13:07.893Z,805.49
2019-04-09T03:13:14.216Z,805.51
2019-04-09T03:13:20.575Z,805.49
2019-04-09T03:13:26.164Z,805.49
2019-04-09T03:13:31.209Z,805.51
2019-04-09T03:13:37.881Z,805.5
2019-04-09T03:13:44.134Z,805.49
2019-04-09T03:13:49.853Z,805.51
2019-04-09T03:13:55.470Z,805.47
2019-04-09T03:14:01.725Z,805.44
2019-04-09T03:14:08.004Z,805.45
2019-04-09T03:14:13.614Z,805.47
2019-04-09T03:14:19.203Z,805.45
2019-04-09T03:14:24.919Z,805.47
2019-04-09T03:14:31.348Z,805.4
2019-04-09T03:14:37.027Z,805.4
2019-04-09T03:14:43.378Z,805.41
2019-04-09T03:14:48.912Z,805.38
2019-04-09T03:14:55.210Z,805.42
2019-04-09T03:15:00.963Z,805.4
2019-04-09T03:15:07.220Z,805.39
2019-04-09T03:15:12.218Z,805.41
2019-04-09T03:15:18.623Z,805.39
2019-04-09T03:15:24.998Z,805.35
2019-04-09T03:15:30.624Z,805.37
2019-04-09T03:15:36.070Z,805.39
2019-04-09T03:15:42.342Z,805.38
2019-04-09T03:15:49.558Z,805.35
2019-04-09T03:15:55.086Z,805.33
2019-04-09T03:16:00.581Z,805.38
2019-04-09T03:16:06.946Z,805.37
2019-04-09T03:16:13.985Z,805.37
2019-04-09T03:16:19.529Z,805.34
2019-04-09T03:16:25.186Z,805.36
2019-04-09T03:16:31.452Z,805.37
2019-04-09T03:16:37.856Z,805.36
2019-04-09T03:16:43.073Z,805.34
2019-04-09T03:16:48.783Z,805.34
2019-04-09T03:16:54.923Z,805.31
2019-04-09T03:17:01.306Z,805.33
2019-04-09T03:17:06.915Z,805.33
2019-04-09T03:17:12.569Z,805.33
2019-04-09T03:17:18.189Z,805.31
2019-04-09T03:17:24.626Z,805.29
2019-04-09T03:17:30.140Z,805.27
2019-04-09T03:17:36.519Z,805.23
2019-04-09T03:17:42.114Z,805.24
2019-04-09T03:17:48.496Z,805.22
2019-04-09T03:17:54.149Z,805.23
2019-04-09T03:18:00.279Z,805.21
2019-04-09T03:18:05.482Z,805.2
2019-04-09T03:18:11.813Z,805.2
2019-04-09T03:18:18.133Z,805.18
2019-04-09T03:18:23.718Z,805.13
2019-04-09T03:18:29.349Z,805.14
2019-04-09T03:18:35.770Z,805.12
2019-04-09T03:18:41.990Z,805.14
2019-04-09T03:18:47.641Z,805.1
2019-04-09T03:18:52.737Z,805.12
2019-04-09T03:18:58.979Z,805.11
2019-04-09T03:19:06.596Z,805.11
2019-04-09T03:19:12.197Z,805.13
2019-04-09T03:19:17.338Z,805.1
2019-04-09T03:19:23.573Z,805.11
2019-04-09T03:19:29.903Z,805.13
2019-04-09T03:19:35.483Z,805.07
2019-04-09T03:19:40.928Z,805.12
2019-04-09T03:19:47.422Z,805.12